createdAt,value
2023-05-21T00:01:28.244Z,20.23
2023-05-21T00:03:57.433Z,20.77
2023-05-21T00:06:26.583Z,21.70
2023-05-21T00:08:57.116Z,21.20
2023-05-21T00:11:26.085Z,20.03
2023-05-21T00:13:54.789Z,21.10
2023-05-21T00:16:23.609Z,21.27
2023-05-21T00:18:54.463Z,20.70
2023-05-21T00:21:26.273Z,21.60
2023-05-21T00:23:57.405Z,20.83
2023-05-21T00:26:26.437Z,21.50
2023-05-21T00:28:59.060Z,20.33
2023-05-21T00:31:27.914Z,20.87
2023-05-21T00:33:57.178Z,21.70
2023-05-21T00:36:26.090Z,20.47
2023-05-21T00:38:56.589Z,22.00
2023-05-21T00:41:26.078Z,21.43
2023-05-21T00:43:56.189Z,21.30
2023-05-21T00:46:25.837Z,21.63
2023-05-21T00:48:54.874Z,22.53
2023-05-21T00:51:23.912Z,22.27
2023-05-21T00:53:53.660Z,23.17
2023-05-21T00:56:25.113Z,23.73
2023-05-21T00:58:54.696Z,23.00
2023-05-21T01:01:25.965Z,23.43
2023-05-21T01:03:57.940Z,23.03
2023-05-21T01:06:27.376Z,24.07
2023-05-21T01:08:57.408Z,23.67
2023-05-21T01:11:38.293Z,24.50
2023-05-21T01:14:09.379Z,23.63
2023-05-21T01:16:41.110Z,23.73
2023-05-21T01:19:15.208Z,23.03
2023-05-21T01:21:48.476Z,21.77
2023-05-21T01:24:19.504Z,23.83
2023-05-21T01:26:49.605Z,21.17
2023-05-21T01:29:18.607Z,23.53
2023-05-21T01:31:58.254Z,23.33
2023-05-21T01:34:31.618Z,22.10
2023-05-21T01:37:09.729Z,22.17
2023-05-21T01:39:42.932Z,22.57
2023-05-21T01:42:12.992Z,20.77
2023-05-21T01:44:43.116Z,21.57
2023-05-21T01:47:12.475Z,21.67
2023-05-21T01:49:41.956Z,20.73
2023-05-21T01:52:10.652Z,21.97
2023-05-21T01:54:41.316Z,21.37
2023-05-21T01:57:10.205Z,22.90
2023-05-21T01:59:39.027Z,23.97
2023-05-21T02:02:08.202Z,24.60
2023-05-21T02:04:37.364Z,26.97
2023-05-21T02:07:06.913Z,26.40
2023-05-21T02:09:35.756Z,27.17
2023-05-21T02:12:06.988Z,29.63
2023-05-21T02:14:35.722Z,30.40
2023-05-21T02:17:04.825Z,30.10
2023-05-21T02:19:33.570Z,29.23
2023-05-21T02:22:02.564Z,28.47
2023-05-21T02:24:31.452Z,29.60
2023-05-21T02:27:00.353Z,29.83
2023-05-21T02:29:30.956Z,30.03
2023-05-21T02:31:59.732Z,30.13
2023-05-21T02:34:31.002Z,28.63
2023-05-21T02:37:00.097Z,29.50
2023-05-21T02:39:28.906Z,30.07
2023-05-21T02:41:57.821Z,29.73
2023-05-21T02:44:26.655Z,29.83
2023-05-21T02:46:57.166Z,29.00
2023-05-21T02:49:26.094Z,31.07
2023-05-21T02:51:54.929Z,28.77
2023-05-21T02:54:23.872Z,27.60
2023-05-21T02:56:52.574Z,27.77
2023-05-21T02:59:21.561Z,27.17
2023-05-21T03:01:50.625Z,26.00
2023-05-21T03:04:22.171Z,25.93
2023-05-21T03:06:51.911Z,27.37
2023-05-21T03:09:21.717Z,25.03
2023-05-21T03:11:50.486Z,25.73
2023-05-21T03:14:19.288Z,24.80
2023-05-21T03:16:49.266Z,24.37
2023-05-21T03:19:21.538Z,23.90
2023-05-21T03:21:50.678Z,22.37
2023-05-21T03:24:19.556Z,21.60
2023-05-21T03:26:50.389Z,21.33
2023-05-21T03:29:19.350Z,20.27
2023-05-21T03:31:48.260Z,19.67
2023-05-21T03:34:17.329Z,18.87
2023-05-21T03:36:47.913Z,17.90
2023-05-21T03:39:18.488Z,16.87
2023-05-21T03:41:47.316Z,16.47
2023-05-21T03:44:25.816Z,15.50
2023-05-21T03:47:02.840Z,15.67
2023-05-21T03:49:37.058Z,14.33
2023-05-21T03:52:08.295Z,14.17
2023-05-21T03:54:37.218Z,14.03
2023-05-21T03:57:09.413Z,13.17
2023-05-21T03:59:38.650Z,13.17
2023-05-21T04:02:07.345Z,12.97
2023-05-21T04:04:37.294Z,11.63
2023-05-21T04:07:14.674Z,13.13
2023-05-21T04:09:43.662Z,11.98
2023-05-21T04:12:12.463Z,11.20
2023-05-21T04:14:41.274Z,11.18
2023-05-21T04:17:12.759Z,10.37
2023-05-21T04:19:42.142Z,10.48
2023-05-21T04:22:13.282Z,10.65
2023-05-21T04:24:42.651Z,10.48
2023-05-21T04:27:16.699Z,9.57
2023-05-21T04:29:46.178Z,10.30
2023-05-21T04:32:15.298Z,10.00
2023-05-21T04:34:44.112Z,10.02
2023-05-21T04:37:14.582Z,9.57
2023-05-21T04:39:43.781Z,9.63
2023-05-21T04:42:12.553Z,9.32
2023-05-21T04:44:41.492Z,9.05
2023-05-21T04:47:12.364Z,8.27
2023-05-21T04:49:41.310Z,9.43
2023-05-21T04:52:10.635Z,8.73
2023-05-21T04:54:41.968Z,8.25
2023-05-21T04:57:10.954Z,8.43
2023-05-21T04:59:40.096Z,9.60
2023-05-21T05:02:09.000Z,8.50
2023-05-21T05:04:37.800Z,7.63
2023-05-21T05:07:07.532Z,7.85
2023-05-21T05:09:36.447Z,7.70
2023-05-21T05:12:08.191Z,7.45
2023-05-21T05:14:37.288Z,7.45
2023-05-21T05:17:08.221Z,7.20
2023-05-21T05:19:37.048Z,7.40
2023-05-21T05:22:06.241Z,7.45
2023-05-21T05:24:35.464Z,7.35
2023-05-21T05:27:04.516Z,7.47
2023-05-21T05:29:35.949Z,7.07
2023-05-21T05:32:06.806Z,6.82
2023-05-21T05:34:35.622Z,7.20
2023-05-21T05:37:04.421Z,7.40
2023-05-21T05:39:33.409Z,7.00
2023-05-21T05:42:03.319Z,7.63
2023-05-21T05:44:34.504Z,7.15
2023-05-21T05:47:09.231Z,7.28
2023-05-21T05:49:38.202Z,6.80
2023-05-21T05:52:08.288Z,7.43
2023-05-21T05:54:37.081Z,6.90
2023-05-21T05:57:06.439Z,7.32
2023-05-21T05:59:36.100Z,6.60
2023-05-21T06:02:07.240Z,6.78
2023-05-21T06:04:36.148Z,6.85
2023-05-21T06:07:05.118Z,6.90
2023-05-21T06:09:33.873Z,6.38
2023-05-21T06:12:02.631Z,6.78
2023-05-21T06:14:31.498Z,5.55
2023-05-21T06:17:00.307Z,5.72
2023-05-21T06:19:31.612Z,5.78
2023-05-21T06:22:00.563Z,5.75
2023-05-21T06:24:29.567Z,5.53
2023-05-21T06:26:58.439Z,5.13
2023-05-21T06:29:27.561Z,5.78
2023-05-21T06:31:56.749Z,4.75
2023-05-21T06:34:25.799Z,5.80
2023-05-21T06:36:57.035Z,4.43
2023-05-21T06:39:27.296Z,5.00
2023-05-21T06:41:57.116Z,5.38
2023-05-21T06:44:42.169Z,5.20
2023-05-21T06:47:18.606Z,5.18
2023-05-21T06:49:47.808Z,4.85
2023-05-21T06:52:18.308Z,4.80
2023-05-21T06:54:47.167Z,4.70
2023-05-21T06:57:17.917Z,5.05
2023-05-21T06:59:46.756Z,4.43
2023-05-21T07:02:17.026Z,4.47
2023-05-21T07:04:46.009Z,4.50
2023-05-21T07:07:14.722Z,4.75
2023-05-21T07:09:45.268Z,4.38
2023-05-21T07:12:14.143Z,4.32
2023-05-21T07:14:43.137Z,4.05
2023-05-21T07:17:11.960Z,4.68
2023-05-21T07:19:40.642Z,4.88
2023-05-21T07:22:09.339Z,4.50
2023-05-21T07:24:38.070Z,3.95
2023-05-21T07:27:17.703Z,4.72
2023-05-21T07:29:53.760Z,4.45
2023-05-21T07:32:23.314Z,4.15
2023-05-21T07:34:54.189Z,4.00
2023-05-21T07:37:25.521Z,3.90
2023-05-21T07:39:54.416Z,3.95
2023-05-21T07:42:25.706Z,4.03
2023-05-21T07:44:55.539Z,3.13
2023-05-21T07:47:27.362Z,3.67
2023-05-21T07:49:56.212Z,3.72
2023-05-21T07:52:24.972Z,3.50
2023-05-21T07:54:53.921Z,3.63
2023-05-21T07:57:25.249Z,3.95
2023-05-21T08:00:03.897Z,3.63
2023-05-21T08:02:33.303Z,4.28
2023-05-21T08:05:02.676Z,3.50
2023-05-21T08:07:32.782Z,3.53
2023-05-21T08:10:13.990Z,3.28
2023-05-21T08:12:43.854Z,3.47
2023-05-21T08:15:12.959Z,3.38
2023-05-21T08:17:45.969Z,3.55
2023-05-21T08:20:16.339Z,3.17
2023-05-21T08:22:47.065Z,3.28
2023-05-21T08:25:17.697Z,3.13
2023-05-21T08:27:46.640Z,3.28
2023-05-21T08:30:15.818Z,3.10
2023-05-21T08:32:44.734Z,3.58
2023-05-21T08:35:14.237Z,3.13
2023-05-21T08:37:54.886Z,3.10
2023-05-21T08:40:55.863Z,3.00
2023-05-21T08:43:28.607Z,2.92
2023-05-21T08:45:59.230Z,3.17
2023-05-21T08:48:32.836Z,3.15
2023-05-21T08:51:02.063Z,2.83
2023-05-21T08:53:35.717Z,2.65
2023-05-21T08:56:09.213Z,2.80
2023-05-21T08:58:47.318Z,2.58
2023-05-21T09:01:19.610Z,2.60
2023-05-21T09:03:55.681Z,2.67
2023-05-21T09:06:28.546Z,2.83
2023-05-21T09:09:05.940Z,2.40
2023-05-21T09:11:47.509Z,2.60
2023-05-21T09:14:16.633Z,2.85
2023-05-21T09:17:02.361Z,2.33
2023-05-21T09:19:32.406Z,2.30
2023-05-21T09:22:06.389Z,2.65
2023-05-21T09:24:36.598Z,2.75
2023-05-21T09:27:09.912Z,2.20
2023-05-21T09:29:38.744Z,2.53
2023-05-21T09:32:09.963Z,2.47
2023-05-21T09:34:42.471Z,2.38
2023-05-21T09:37:20.170Z,2.63
2023-05-21T09:39:56.446Z,2.30
2023-05-21T09:42:31.714Z,2.50
2023-05-21T09:45:01.067Z,2.70
2023-05-21T09:47:30.212Z,3.17
2023-05-21T09:49:59.870Z,2.60
2023-05-21T09:52:29.722Z,2.72
2023-05-21T09:54:58.536Z,2.75
2023-05-21T09:57:28.916Z,2.90
2023-05-21T09:59:57.915Z,2.60
2023-05-21T10:02:27.736Z,2.65
2023-05-21T10:04:57.952Z,2.53
2023-05-21T10:07:27.811Z,2.65
2023-05-21T10:09:57.528Z,2.60
2023-05-21T10:12:26.489Z,2.10
2023-05-21T10:15:02.217Z,2.50
2023-05-21T10:17:31.784Z,2.40
2023-05-21T10:20:01.722Z,2.72
2023-05-21T10:22:31.088Z,2.85
2023-05-21T10:25:01.116Z,2.63
2023-05-21T10:27:32.498Z,2.60
2023-05-21T10:30:03.468Z,2.45
2023-05-21T10:32:32.744Z,2.60
2023-05-21T10:35:02.893Z,3.15
2023-05-21T10:37:31.552Z,3.03
2023-05-21T10:40:00.413Z,2.90
2023-05-21T10:43:00.063Z,2.70
2023-05-21T10:45:42.983Z,2.80
2023-05-21T10:48:27.499Z,2.95
2023-05-21T10:51:20.091Z,3.03
2023-05-21T10:54:05.324Z,2.95
2023-05-21T10:56:40.720Z,2.75
2023-05-21T10:59:24.814Z,2.85
2023-05-21T11:01:56.971Z,3.03
2023-05-21T11:04:28.311Z,2.65
2023-05-21T11:06:57.336Z,3.10
2023-05-21T11:09:26.197Z,2.72
2023-05-21T11:11:58.824Z,2.67
2023-05-21T11:14:36.251Z,2.92
2023-05-21T11:17:12.605Z,2.50
2023-05-21T11:19:42.261Z,2.92
2023-05-21T11:22:22.046Z,2.60
2023-05-21T11:24:51.622Z,2.67
2023-05-21T11:27:34.596Z,2.90
2023-05-21T11:30:07.135Z,2.55
2023-05-21T11:32:40.563Z,2.45
2023-05-21T11:35:09.980Z,2.50
2023-05-21T11:37:41.759Z,2.63
2023-05-21T11:40:27.270Z,2.50
2023-05-21T11:42:57.070Z,2.40
2023-05-21T11:45:30.870Z,2.70
2023-05-21T11:48:01.770Z,2.50
2023-05-21T11:50:33.771Z,2.47
2023-05-21T11:53:03.223Z,2.38
2023-05-21T11:55:33.138Z,2.97
2023-05-21T11:58:02.799Z,2.60
2023-05-21T12:00:31.810Z,3.17
2023-05-21T12:03:02.158Z,2.75
2023-05-21T12:05:31.098Z,2.63
2023-05-21T12:07:59.763Z,2.30
2023-05-21T12:10:28.455Z,2.33
2023-05-21T12:12:57.687Z,2.70
2023-05-21T12:15:27.986Z,2.42
2023-05-21T12:17:57.853Z,2.20
2023-05-21T12:20:30.870Z,2.83
2023-05-21T12:23:00.635Z,3.92
2023-05-21T12:25:30.545Z,3.22
2023-05-21T12:28:01.364Z,2.60
2023-05-21T12:30:30.325Z,2.60
2023-05-21T12:33:02.180Z,2.17
2023-05-21T12:35:32.853Z,2.22
2023-05-21T12:38:04.482Z,2.53
2023-05-21T12:40:38.756Z,2.42
2023-05-21T12:43:08.613Z,2.35
2023-05-21T12:45:39.420Z,2.55
2023-05-21T12:48:08.712Z,2.85
2023-05-21T12:50:42.263Z,2.60
2023-05-21T12:53:12.600Z,2.15
2023-05-21T12:55:41.577Z,2.30
2023-05-21T12:58:14.015Z,2.72
2023-05-21T13:00:43.386Z,2.30
2023-05-21T13:03:12.476Z,2.42
2023-05-21T13:05:43.000Z,2.40
2023-05-21T13:08:14.122Z,2.42
2023-05-21T13:10:42.870Z,2.53
2023-05-21T13:13:11.482Z,2.20
2023-05-21T13:15:40.263Z,2.53
2023-05-21T13:18:09.039Z,2.47
2023-05-21T13:20:38.246Z,2.45
2023-05-21T13:23:10.507Z,2.40
2023-05-21T13:25:40.432Z,2.40
2023-05-21T13:28:10.449Z,2.45
2023-05-21T13:30:39.516Z,2.50
2023-05-21T13:33:08.594Z,2.33
2023-05-21T13:35:37.643Z,2.45
2023-05-21T13:38:06.324Z,2.35
2023-05-21T13:40:38.833Z,2.08
2023-05-21T13:43:07.857Z,2.50
2023-05-21T13:45:36.609Z,1.90
2023-05-21T13:48:05.756Z,2.28
2023-05-21T13:50:34.610Z,2.33
2023-05-21T13:53:03.434Z,2.00
2023-05-21T13:55:32.082Z,2.17
2023-05-21T13:58:02.233Z,2.50
2023-05-21T14:00:31.180Z,2.35
2023-05-21T14:03:00.021Z,2.60
2023-05-21T14:05:29.005Z,2.13
2023-05-21T14:07:57.594Z,2.50
2023-05-21T14:10:26.394Z,2.35
2023-05-21T14:13:01.448Z,1.73
2023-05-21T14:15:38.629Z,2.20
2023-05-21T14:18:12.126Z,2.40
2023-05-21T14:20:40.874Z,2.08
2023-05-21T14:23:11.577Z,2.40
2023-05-21T14:25:40.266Z,1.80
2023-05-21T14:28:08.976Z,2.47
2023-05-21T14:30:39.124Z,2.30
2023-05-21T14:33:07.796Z,2.28
2023-05-21T14:35:36.704Z,1.80
2023-05-21T14:38:05.587Z,2.20
2023-05-21T14:40:34.258Z,2.05
2023-05-21T14:43:03.102Z,2.00
2023-05-21T14:45:33.073Z,2.50
2023-05-21T14:48:08.357Z,2.00
2023-05-21T14:50:37.331Z,2.13
2023-05-21T14:53:06.689Z,2.05
2023-05-21T14:55:37.244Z,1.98
2023-05-21T14:58:06.434Z,1.60
2023-05-21T15:00:36.184Z,1.73
2023-05-21T15:03:06.736Z,1.80
2023-05-21T15:05:36.122Z,1.70
2023-05-21T15:08:05.979Z,2.33
2023-05-21T15:10:34.719Z,2.00
2023-05-21T15:13:03.424Z,1.80
2023-05-21T15:15:32.117Z,1.88
2023-05-21T15:18:01.027Z,1.60
2023-05-21T15:20:31.249Z,2.13
2023-05-21T15:25:33.117Z,1.98
2023-05-21T15:28:01.874Z,1.60
2023-05-21T15:30:30.577Z,1.90
2023-05-21T15:32:59.390Z,1.90
2023-05-21T15:35:28.261Z,1.98
2023-05-21T15:37:58.642Z,1.90
2023-05-21T15:40:27.533Z,1.88
2023-05-21T15:42:56.367Z,1.85
2023-05-21T15:45:26.237Z,1.83
2023-05-21T15:47:55.087Z,1.80
2023-05-21T15:50:23.874Z,1.98
2023-05-21T15:52:53.431Z,1.85
2023-05-21T15:55:24.284Z,1.83
2023-05-21T15:57:53.062Z,1.65
2023-05-21T16:00:22.232Z,1.80
2023-05-21T16:02:51.165Z,1.80
2023-05-21T16:05:20.127Z,1.88
2023-05-21T16:07:49.295Z,1.77
2023-05-21T16:10:18.473Z,2.00
2023-05-21T16:12:48.913Z,2.08
2023-05-21T16:15:18.184Z,1.92
2023-05-21T16:17:47.308Z,2.10
2023-05-21T16:20:16.248Z,2.00
2023-05-21T16:22:45.021Z,1.63
2023-05-21T16:25:13.848Z,2.15
2023-05-21T16:27:42.714Z,1.90
2023-05-21T16:30:14.307Z,2.30
2023-05-21T16:32:43.251Z,1.83
2023-05-21T16:35:12.137Z,2.05
2023-05-21T16:37:40.846Z,2.10
2023-05-21T16:40:11.009Z,2.30
2023-05-21T16:42:40.329Z,1.90
2023-05-21T16:45:10.939Z,2.00
2023-05-21T16:47:41.359Z,2.00
2023-05-21T16:50:11.247Z,2.35
2023-05-21T16:52:39.973Z,1.98
2023-05-21T16:55:09.661Z,2.22
2023-05-21T16:57:38.484Z,1.90
2023-05-21T17:00:08.800Z,1.90
2023-05-21T17:02:37.888Z,2.10
2023-05-21T17:05:09.293Z,1.90
2023-05-21T17:07:38.938Z,1.90
2023-05-21T17:10:09.819Z,1.70
2023-05-21T17:12:38.668Z,1.80
2023-05-21T17:15:08.804Z,2.25
2023-05-21T17:17:37.725Z,2.45
2023-05-21T17:20:09.940Z,2.65
2023-05-21T17:22:39.355Z,2.30
2023-05-21T17:25:09.365Z,1.80
2023-05-21T17:27:38.105Z,1.85
2023-05-21T17:30:08.000Z,2.08
2023-05-21T17:32:36.789Z,2.13
2023-05-21T17:35:08.162Z,1.98
2023-05-21T17:37:37.087Z,2.00
2023-05-21T17:40:06.709Z,1.88
2023-05-21T17:42:35.553Z,2.13
2023-05-21T17:45:04.601Z,2.22
2023-05-21T17:47:34.621Z,2.30
2023-05-21T17:50:03.545Z,2.03
2023-05-21T17:52:34.059Z,2.17
2023-05-21T17:55:02.897Z,2.40
2023-05-21T17:57:31.587Z,1.73
2023-05-21T18:00:00.272Z,1.98
2023-05-21T18:02:28.932Z,1.90
2023-05-21T18:04:57.628Z,2.47
2023-05-21T18:07:26.288Z,2.33
2023-05-21T18:09:56.371Z,2.15
2023-05-21T18:12:25.018Z,2.35
2023-05-21T18:14:53.792Z,2.90
2023-05-21T18:17:22.593Z,4.85
2023-05-21T18:19:52.172Z,3.55
2023-05-21T18:22:20.999Z,2.67
2023-05-21T18:24:49.564Z,2.60
2023-05-21T18:27:19.663Z,2.65
2023-05-21T18:29:49.151Z,2.65
2023-05-21T18:32:17.959Z,2.78
2023-05-21T18:34:48.280Z,2.67
2023-05-21T18:37:18.471Z,2.25
2023-05-21T18:39:47.189Z,2.35
2023-05-21T18:42:15.909Z,2.60
2023-05-21T18:44:46.547Z,2.40
2023-05-21T18:47:15.320Z,2.70
2023-05-21T18:49:44.122Z,2.65
2023-05-21T18:52:12.869Z,2.80
2023-05-21T18:54:41.687Z,2.80
2023-05-21T18:57:10.275Z,3.08
2023-05-21T18:59:40.757Z,3.25
2023-05-21T19:02:11.346Z,4.00
2023-05-21T19:04:40.384Z,3.40
2023-05-21T19:07:09.075Z,3.58
2023-05-21T19:09:38.003Z,3.22
2023-05-21T19:12:07.742Z,3.20
2023-05-21T19:14:36.550Z,2.63
2023-05-21T19:17:05.638Z,2.97
2023-05-21T19:19:35.877Z,3.37
2023-05-21T19:22:04.935Z,2.87
2023-05-21T19:24:33.589Z,3.30
2023-05-21T19:27:02.262Z,3.00
2023-05-21T19:29:30.897Z,3.07
2023-05-21T19:31:59.532Z,3.27
2023-05-21T19:34:28.499Z,3.10
2023-05-21T19:36:58.663Z,3.27
2023-05-21T19:39:27.372Z,2.90
2023-05-21T19:41:56.474Z,2.83
2023-05-21T19:44:25.197Z,2.63
2023-05-21T19:46:54.673Z,2.80
2023-05-21T19:49:23.585Z,3.10
2023-05-21T19:51:54.744Z,2.83
2023-05-21T19:54:26.063Z,2.80
2023-05-21T19:56:55.267Z,3.00
2023-05-21T19:59:24.015Z,3.07
2023-05-21T20:01:52.800Z,2.70
2023-05-21T20:04:21.556Z,2.60
2023-05-21T20:06:50.398Z,3.00
2023-05-21T20:09:19.077Z,2.90
2023-05-21T20:11:49.668Z,2.83
2023-05-21T20:14:18.449Z,3.00
2023-05-21T20:16:48.543Z,2.70
2023-05-21T20:19:17.261Z,2.93
2023-05-21T20:21:46.029Z,3.20
2023-05-21T20:24:14.871Z,2.93
2023-05-21T20:26:45.030Z,3.10
2023-05-21T20:29:15.417Z,2.80
2023-05-21T20:31:44.543Z,3.00
2023-05-21T20:34:13.326Z,3.30
2023-05-21T20:36:42.071Z,3.10
2023-05-21T20:39:12.063Z,2.93
2023-05-21T20:41:44.546Z,3.43
2023-05-21T20:44:14.632Z,3.23
2023-05-21T20:46:43.449Z,2.87
2023-05-21T20:49:12.274Z,2.80
2023-05-21T20:51:41.346Z,3.87
2023-05-21T20:54:10.951Z,3.60
2023-05-21T20:56:42.831Z,3.73
2023-05-21T20:59:12.889Z,3.13
2023-05-21T21:01:42.971Z,3.60
2023-05-21T21:04:11.697Z,3.37
2023-05-21T21:06:40.855Z,3.30
2023-05-21T21:09:09.576Z,3.50
2023-05-21T21:11:38.285Z,3.70
2023-05-21T21:14:07.182Z,3.50
2023-05-21T21:16:36.200Z,3.80
2023-05-21T21:19:06.642Z,3.37
2023-05-21T21:21:36.022Z,3.47
2023-05-21T21:24:05.159Z,3.10
2023-05-21T21:26:34.032Z,3.37
2023-05-21T21:29:02.769Z,3.53
2023-05-21T21:31:31.613Z,3.50
2023-05-21T21:34:00.376Z,3.23
2023-05-21T21:36:31.298Z,4.03
2023-05-21T21:38:59.993Z,3.30
2023-05-21T21:41:28.733Z,3.43
2023-05-21T21:43:57.407Z,3.50
2023-05-21T21:46:26.559Z,3.57
2023-05-21T21:48:55.212Z,3.37
2023-05-21T21:51:24.106Z,3.27
2023-05-21T21:53:54.151Z,3.17
2023-05-21T21:56:23.195Z,3.50
2023-05-21T21:58:51.823Z,3.80
2023-05-21T22:01:20.702Z,3.60
2023-05-21T22:03:49.460Z,3.47
2023-05-21T22:06:18.351Z,3.53
2023-05-21T22:08:47.083Z,3.13
2023-05-21T22:11:17.180Z,3.30
2023-05-21T22:13:45.967Z,3.37
2023-05-21T22:16:15.130Z,3.23
2023-05-21T22:18:43.982Z,3.50
2023-05-21T22:21:14.555Z,4.03
2023-05-21T22:23:43.432Z,3.33
2023-05-21T22:26:12.235Z,3.47
2023-05-21T22:28:42.286Z,3.93
2023-05-21T22:31:11.042Z,3.63
2023-05-21T22:33:40.304Z,3.60
2023-05-21T22:36:09.574Z,3.97
2023-05-21T22:38:38.835Z,3.70
2023-05-21T22:41:08.574Z,3.97
2023-05-21T22:43:38.577Z,3.90
2023-05-21T22:46:08.778Z,3.70
2023-05-21T22:48:37.522Z,3.60
2023-05-21T22:51:06.330Z,4.00
2023-05-21T22:53:35.645Z,4.10
2023-05-21T22:56:04.425Z,3.57
2023-05-21T22:58:33.068Z,3.80
2023-05-21T23:01:01.918Z,3.83
2023-05-21T23:03:32.058Z,3.63
2023-05-21T23:06:00.897Z,3.93
2023-05-21T23:08:29.553Z,4.00
2023-05-21T23:10:58.263Z,3.97
2023-05-21T23:13:26.931Z,3.80
2023-05-21T23:15:58.937Z,3.77
2023-05-21T23:18:27.774Z,3.53
2023-05-21T23:20:58.000Z,4.13
2023-05-21T23:23:26.763Z,4.00
2023-05-21T23:25:57.647Z,3.80
2023-05-21T23:28:26.594Z,4.20
2023-05-21T23:30:55.424Z,4.43
2023-05-21T23:33:24.069Z,4.40
2023-05-21T23:35:52.798Z,4.10
2023-05-21T23:38:22.970Z,4.50
2023-05-21T23:40:51.853Z,4.33
2023-05-21T23:43:20.559Z,4.20
2023-05-21T23:45:49.361Z,4.10
2023-05-21T23:48:18.133Z,4.70
2023-05-21T23:50:46.990Z,4.63
2023-05-21T23:53:15.789Z,4.60
2023-05-21T23:55:46.233Z,5.07
2023-05-21T23:58:15.168Z,4.97
